MMCU/CUU METAR and TAF weather

Enter ICAO airport designator
Station Type Date Time Source
MMCU METAR 2024/07/12 18:40 UTC NOAA

MMCU 121840Z 03012KT 10SM SCT030 31/11 A3020 RMK 8/100 VC TCU


Station Type Date Time Source
MMCU Decoded METAR 2024/07/12 18:40 UTC NOAA

Chihuahua International Airport, Mexico (MMCU) 28-42N 105-58W
Jul 12, 2024 - 02:40 PM EDT / 2024.07.12 1840 UTC
Wind: from the NNE (030 degrees) at 14 MPH (12 KT):0
Visibility: 10 mile(s):0
Sky conditions: partly cloudy
Weather: Towering cumulus clouds observed
Temperature: 87 F (31 C)
Dew Point: 51 F (11 C)
Relative Humidity: 29%
Pressure (altimeter): 30.2 in. Hg (1022 hPa)
ob: MMCU 121840Z 03012KT 10SM SCT030 31/11 A3020 RMK 8/100 VC TCU
cycle: 18

Station Type Date Time Source
MMCU TAF 2024/07/12 18:20 UTC NOAA